Time;durP1;ratioP1;P1;durP2;ratioP2;P2;SDS_P1;SDS_P2;PMS_P1;PMS_P2;Temp;Humidity;BMP_temperature;BMP_pressure;BME280_temperature;BME280_humidity;BME280_pressure;Samples;Min_cycle;Max_cycle;Signal;HPM_P1;HPM_P2
2022/02/24 00:00:10;;;;;;;2.80;1.92;;;;;;;2.51;56.87;100096.13;5027002;28;20102;-81
2022/02/24 00:02:39;;;;;;;3.78;1.95;;;;;;;2.62;56.60;100109.28;5026140;28;20120;-81
2022/02/24 00:05:06;;;;;;;3.53;2.00;;;;;;;2.62;56.87;100104.16;5025309;28;20471;-81
2022/02/24 00:07:32;;;;;;;3.65;2.35;;;;;;;2.73;56.99;100116.44;5024913;28;20537;-80
2022/02/24 00:09:58;;;;;;;3.08;1.90;;;;;;;2.58;56.50;100099.75;5034123;28;20037;-82
2022/02/24 00:12:24;;;;;;;5.15;2.05;;;;;;;2.64;56.84;100109.34;5028164;28;20041;-81
2022/02/24 00:14:50;;;;;;;4.28;2.22;;;;;;;2.48;57.25;100083.19;5032845;28;20052;-81
2022/02/24 00:17:16;;;;;;;3.22;1.90;;;;;;;2.67;56.59;100117.13;5026300;28;20098;-81
2022/02/24 00:19:41;;;;;;;4.45;2.17;;;;;;;2.67;57.08;100115.44;5027259;28;20056;-79
2022/02/24 00:22:07;;;;;;;4.45;1.80;;;;;;;2.69;56.55;100116.34;5009170;28;20506;-81
2022/02/24 00:24:35;;;;;;;3.60;2.25;;;;;;;2.72;56.80;100113.00;5025932;28;20049;-81
2022/02/24 00:27:00;;;;;;;3.60;2.10;;;;;;;2.69;56.40;100118.03;5025164;28;20337;-81
2022/02/24 00:29:26;;;;;;;2.80;2.10;;;;;;;2.62;56.33;100127.28;5023203;28;20052;-81
2022/02/24 00:31:52;;;;;;;3.90;2.30;;;;;;;2.48;56.50;100120.88;5008778;28;20045;-80
2022/02/24 00:34:22;;;;;;;3.35;2.33;;;;;;;2.46;56.74;100133.66;5024474;28;20071;-84
2022/02/24 00:36:55;;;;;;;3.22;2.10;;;;;;;2.34;56.34;100123.91;5026139;28;20072;-81
2022/02/24 00:39:22;;;;;;;4.13;2.45;;;;;;;2.10;56.82;100103.50;5025069;28;20041;-83
2022/02/24 00:41:49;;;;;;;6.35;4.07;;;;;;;2.19;56.34;100129.47;5040667;28;20136;-81
2022/02/24 00:44:15;;;;;;;10.95;6.78;;;;;;;2.06;57.54;100120.53;5041560;28;20034;-81
2022/02/24 00:46:41;;;;;;;11.02;7.05;;;;;;;1.96;56.94;100115.91;5024865;28;20383;-83
2022/02/24 00:49:08;;;;;;;9.85;7.00;;;;;;;1.47;57.11;100051.09;5041121;28;20115;-81
2022/02/24 00:51:37;;;;;;;8.88;6.82;;;;;;;1.70;57.22;100092.84;5011063;28;20049;-82
2022/02/24 00:54:03;;;;;;;9.73;6.25;;;;;;;1.67;56.92;100091.91;5026083;28;20429;-81
2022/02/24 00:56:30;;;;;;;7.22;5.05;;;;;;;1.76;57.57;100116.16;5026622;28;20494;-80
2022/02/24 00:58:55;;;;;;;6.60;4.70;;;;;;;1.91;57.35;100149.16;5045365;28;20156;-80
2022/02/24 01:01:22;;;;;;;5.28;3.67;;;;;;;1.86;57.03;100148.13;5025315;28;20578;-81
2022/02/24 01:03:48;;;;;;;5.03;2.88;;;;;;;1.60;57.48;100109.66;5023801;28;20422;-81
2022/02/24 01:06:14;;;;;;;5.75;2.88;;;;;;;1.79;57.71;100141.03;5026555;28;20041;-82
2022/02/24 01:08:40;;;;;;;2.92;2.30;;;;;;;1.81;57.67;100144.53;5027381;28;20034;-81
2022/02/24 01:11:06;;;;;;;3.28;2.00;;;;;;;1.84;57.93;100141.19;5027336;28;20567;-81
2022/02/24 01:13:32;;;;;;;4.68;2.00;;;;;;;1.79;56.98;100143.59;5035280;28;20049;-80
2022/02/24 01:15:58;;;;;;;2.28;1.75;;;;;;;1.75;57.18;100155.47;5031786;28;20410;-81
2022/02/24 01:18:26;;;;;;;3.72;1.67;;;;;;;1.60;56.87;100150.69;5034323;28;20033;-81
2022/02/24 01:20:52;;;;;;;2.03;1.45;;;;;;;1.49;57.54;100140.09;5039328;28;20139;-81
2022/02/24 01:23:18;;;;;;;3.28;2.03;;;;;;;1.56;57.31;100148.00;5052717;28;20069;-82
2022/02/24 01:25:44;;;;;;;2.20;1.42;;;;;;;1.54;57.29;100144.50;5038333;28;20057;-81
2022/02/24 01:28:10;;;;;;;2.17;1.50;;;;;;;1.64;57.63;100156.81;5033664;28;20526;-82
2022/02/24 01:30:35;;;;;;;3.28;1.20;;;;;;;1.60;57.52;100158.41;5028165;28;20068;-82
2022/02/24 01:33:01;;;;;;;1.70;1.10;;;;;;;1.61;57.23;100159.28;5031858;28;20128;-81
2022/02/24 01:35:27;;;;;;;1.88;1.40;;;;;;;1.63;56.99;100152.50;5042461;28;20143;-82
2022/02/24 01:37:53;;;;;;;2.22;1.05;;;;;;;1.71;56.81;100155.34;5022017;28;20044;-81
2022/02/24 01:40:57;;;;;;;1.30;1.00;;;;;;;1.81;56.79;100170.19;5031799;28;20044;-81
2022/02/24 01:48:35;;;;;;;3.55;0.98;;;;;;;1.27;56.36;100088.91;5005488;28;20065;-81
2022/02/24 01:51:01;;;;;;;2.28;1.05;;;;;;;1.92;56.62;100180.81;5010530;28;20057;-82
2022/02/24 01:53:27;;;;;;;1.40;0.90;;;;;;;1.95;56.11;100186.03;4995707;28;20045;-81
2022/02/24 01:55:53;;;;;;;0.65;0.50;;;;;;;1.91;55.36;100194.47;5013312;28;20088;-81
2022/02/24 01:58:22;;;;;;;1.05;0.68;;;;;;;1.80;55.92;100183.84;4999060;28;20056;-82
2022/02/24 02:00:50;;;;;;;1.10;0.80;;;;;;;1.94;55.46;100198.00;4983522;28;20050;-82
2022/02/24 02:03:16;;;;;;;1.20;0.80;;;;;;;1.90;55.67;100190.16;5021501;28;20088;-79
2022/02/24 02:05:42;;;;;;;1.00;0.70;;;;;;;2.00;55.42;100202.47;4989886;28;20038;-81
2022/02/24 02:08:08;;;;;;;1.20;0.80;;;;;;;2.08;54.84;100201.03;4993229;28;20633;-81
2022/02/24 02:10:34;;;;;;;1.10;0.77;;;;;;;2.16;55.21;100205.53;5005376;28;20908;-82
2022/02/24 02:13:01;;;;;;;0.80;0.70;;;;;;;2.11;54.29;100193.41;5022607;28;20045;-83
2022/02/24 02:15:26;;;;;;;0.95;0.80;;;;;;;2.19;54.34;100203.06;5029876;28;20092;-82
2022/02/24 02:17:52;;;;;;;1.10;0.75;;;;;;;2.16;53.93;100205.53;5013729;28;20399;-81
2022/02/24 02:20:20;;;;;;;0.82;0.80;;;;;;;2.18;54.14;100209.00;5031545;28;20044;-81
2022/02/24 02:22:49;;;;;;;0.60;0.60;;;;;;;2.01;53.96;100160.56;5014311;28;20446;-81
2022/02/24 02:25:19;;;;;;;1.42;1.00;;;;;;;2.22;53.98;100198.88;5029139;28;21019;-84
2022/02/24 02:27:52;;;;;;;0.80;0.70;;;;;;;2.29;53.84;100196.50;5049084;28;20037;-80
2022/02/24 02:30:19;;;;;;;;;;;;;;;2.43;53.52;100210.63;5050506;28;20369;-80
2022/02/24 02:32:45;;;;;;;1.35;0.75;;;;;;;2.40;52.98;100215.72;5034554;28;19960;-81
2022/02/24 02:35:11;;;;;;;0.70;0.63;;;;;;;2.40;52.95;100210.56;5041006;28;20048;-81
2022/02/24 02:37:37;;;;;;;0.98;0.70;;;;;;;2.41;52.83;100200.31;5032517;28;20038;-83
2022/02/24 02:40:05;;;;;;;1.10;0.57;;;;;;;2.40;53.04;100193.44;5029096;28;20063;-81
2022/02/24 02:42:30;;;;;;;0.68;0.60;;;;;;;2.32;52.44;100189.75;5017342;28;20345;-82
2022/02/24 02:44:56;;;;;;;0.75;0.52;;;;;;;2.35;52.56;100204.41;5051449;28;20056;-81
2022/02/24 02:47:22;;;;;;;0.82;0.52;;;;;;;2.33;52.53;100206.06;5037091;28;20639;-81
2022/02/24 02:49:48;;;;;;;1.08;0.40;;;;;;;2.27;52.23;100206.75;5017552;28;20041;-81
2022/02/24 02:52:13;;;;;;;0.63;0.50;;;;;;;2.21;52.56;100206.53;5040676;28;20052;-82
2022/02/24 02:54:42;;;;;;;1.73;0.82;;;;;;;2.28;52.54;100213.63;5041559;28;20109;-81
2022/02/24 02:57:08;;;;;;;0.70;0.63;;;;;;;2.43;52.23;100232.91;5042222;28;20055;-82
2022/02/24 02:59:34;;;;;;;2.00;0.77;;;;;;;2.42;52.60;100219.19;5024817;28;20056;-82
2022/02/24 03:01:59;;;;;;;1.40;0.90;;;;;;;2.37;52.46;100211.31;5038463;28;20040;-82
2022/02/24 03:04:26;;;;;;;1.23;0.68;;;;;;;2.49;52.14;100233.09;5030316;28;20073;-83
2022/02/24 03:06:51;;;;;;;0.85;0.85;;;;;;;2.40;51.67;100218.28;5011849;28;20072;-82
2022/02/24 03:09:17;;;;;;;0.75;0.60;;;;;;;2.54;52.16;100234.97;5015064;28;20103;-82
2022/02/24 03:11:43;;;;;;;0.68;0.68;;;;;;;2.46;52.10;100225.28;5032934;28;20038;-81
2022/02/24 03:14:09;;;;;;;1.38;1.13;;;;;;;2.46;51.91;100236.44;5031050;28;20041;-80
2022/02/24 03:16:35;;;;;;;0.47;0.40;;;;;;;2.34;51.04;100215.50;5027923;28;20195;-82
2022/02/24 03:19:00;;;;;;;0.70;0.50;;;;;;;2.18;51.30;100196.16;5041997;28;20059;-81
2022/02/24 03:21:26;;;;;;;0.75;0.60;;;;;;;2.39;51.48;100234.50;5027695;28;20415;-81
2022/02/24 03:23:52;;;;;;;0.75;0.68;;;;;;;2.28;51.66;100213.63;5027144;28;20088;-81
2022/02/24 03:26:18;;;;;;;1.65;0.68;;;;;;;2.18;51.18;100209.00;5028387;28;20401;-83
2022/02/24 03:32:18;;;;;;;1.40;0.80;;;;;;;2.31;51.36;100238.53;5008913;28;20136;-80
2022/02/24 03:34:44;;;;;;;1.83;1.00;;;;;;;2.44;51.50;100256.06;5027551;28;20147;-81
2022/02/24 03:37:10;;;;;;;1.20;1.05;;;;;;;2.45;51.18;100250.09;5027567;28;20038;-81
2022/02/24 03:39:36;;;;;;;2.05;1.17;;;;;;;2.32;51.14;100241.13;5026403;28;20048;-81
2022/02/24 03:42:03;;;;;;;3.45;1.70;;;;;;;2.29;51.18;100251.34;5043165;28;20568;-82
2022/02/24 03:44:29;;;;;;;2.30;1.48;;;;;;;1.96;50.85;100205.75;5027425;28;20516;-80
2022/02/24 03:46:55;;;;;;;3.22;1.45;;;;;;;2.30;51.22;100275.31;5027324;28;20045;-80
2022/02/24 03:49:21;;;;;;;4.57;1.58;;;;;;;2.10;51.51;100252.41;5027899;28;20473;-78
2022/02/24 03:51:46;;;;;;;3.78;1.58;;;;;;;2.23;51.92;100279.38;5027350;28;20049;-81
2022/02/24 03:54:12;;;;;;;6.32;2.15;;;;;;;2.20;51.50;100280.16;5027583;28;20103;-82
2022/02/24 03:56:38;;;;;;;3.20;1.65;;;;;;;1.97;52.05;100276.81;5030578;28;20060;-81
2022/02/24 03:59:04;;;;;;;5.13;2.13;;;;;;;1.95;52.65;100284.47;5033217;28;20131;-82
2022/02/24 04:01:30;;;;;;;5.05;1.90;;;;;;;1.86;52.17;100281.56;5010841;28;20498;-81
2022/02/24 04:03:56;;;;;;;6.55;2.38;;;;;;;1.87;52.87;100303.00;5010019;28;20080;-81
2022/02/24 04:06:22;;;;;;;3.92;2.13;;;;;;;1.55;52.81;100261.69;5033734;28;20041;-81
2022/02/24 04:08:49;;;;;;;5.35;2.33;;;;;;;1.62;53.53;100285.03;5026632;28;20051;-82
2022/02/24 04:11:15;;;;;;;4.78;2.17;;;;;;;1.72;53.85;100314.47;5014940;28;20068;-80
2022/02/24 04:13:40;;;;;;;3.15;1.90;;;;;;;1.70;53.49;100313.53;5028793;28;20033;-81
2022/02/24 04:16:07;;;;;;;4.65;2.55;;;;;;;1.52;54.34;100295.81;5028279;28;20053;-81
2022/02/24 04:18:32;;;;;;;5.03;2.17;;;;;;;1.50;54.34;100306.00;5028171;28;20045;-81
2022/02/24 04:20:58;;;;;;;7.18;2.65;;;;;;;1.57;54.51;100319.91;5027734;28;21157;-81
2022/02/24 04:23:24;;;;;;;9.60;3.83;;;;;;;1.45;54.88;100306.66;5033515;28;20049;-80
2022/02/24 04:25:50;;;;;;;5.03;2.53;;;;;;;1.57;54.51;100329.31;5042181;28;20052;-80
2022/02/24 04:28:16;;;;;;;4.18;2.30;;;;;;;1.55;54.88;100330.94;5009147;28;20120;-81
2022/02/24 04:30:41;;;;;;;5.13;2.28;;;;;;;1.42;55.10;100327.94;5001485;28;20037;-81
2022/02/24 04:33:07;;;;;;;5.45;2.55;;;;;;;1.49;55.50;100341.88;5027138;28;20037;-82
2022/02/24 04:35:33;;;;;;;4.85;2.60;;;;;;;1.54;55.72;100350.63;5041852;28;20072;-80
2022/02/24 04:38:00;;;;;;;7.55;2.83;;;;;;;1.54;55.56;100342.03;5026448;28;20046;-81
2022/02/24 04:40:33;;;;;;;6.07;2.83;;;;;;;1.57;56.08;100350.69;5027152;28;20525;-81
2022/02/24 04:43:02;;;;;;;9.60;3.08;;;;;;;1.34;55.50;100312.25;5028182;28;20045;-81
2022/02/24 04:45:28;;;;;;;5.43;2.80;;;;;;;1.61;55.85;100361.97;5027910;28;20180;-80
2022/02/24 04:47:54;;;;;;;11.07;3.00;;;;;;;1.54;56.31;100377.94;5030244;28;20083;-80
2022/02/24 04:50:19;;;;;;;6.13;3.00;;;;;;;1.43;55.99;100357.91;5033554;28;20041;-81
2022/02/24 04:52:45;;;;;;;5.22;3.40;;;;;;;1.41;56.35;100356.97;5049693;28;20029;-80
2022/02/24 04:55:13;;;;;;;5.93;2.83;;;;;;;1.54;56.86;100386.53;5048283;28;20052;-83
2022/02/24 04:57:39;;;;;;;6.65;3.47;;;;;;;1.57;56.97;100390.88;5036028;28;20049;-80
2022/02/24 05:00:09;;;;;;;4.25;2.80;;;;;;;1.54;57.18;100385.63;5033248;28;20095;-81
2022/02/24 05:02:35;;;;;;;4.30;2.50;;;;;;;1.31;57.00;100342.06;5016401;28;20104;-82
2022/02/24 05:05:02;;;;;;;4.43;2.78;;;;;;;1.31;57.63;100354.88;5033545;28;20099;-86
2022/02/24 05:07:30;;;;;;;4.13;2.78;;;;;;;0.94;57.54;100295.38;5045799;28;20038;-83
2022/02/24 05:09:59;;;;;;;5.20;3.08;;;;;;;1.63;57.17;100406.50;5067873;28;20041;-84
2022/02/24 05:12:25;;;;;;;4.30;3.10;;;;;;;1.39;57.79;100376.56;5041600;28;20060;-82
2022/02/24 05:14:51;;;;;;;5.22;3.05;;;;;;;1.66;57.78;100419.44;5053584;28;20045;-83
2022/02/24 05:17:17;;;;;;;4.68;2.75;;;;;;;1.67;57.53;100436.56;5044168;28;20042;-83
2022/02/24 05:19:43;;;;;;;5.93;3.40;;;;;;;1.24;57.78;100347.75;5035196;28;20045;-85
2022/02/24 05:22:09;;;;;;;7.18;3.50;;;;;;;1.56;57.69;100410.53;5032750;28;20084;-84
2022/02/24 05:24:35;;;;;;;4.70;2.88;;;;;;;1.64;58.02;100411.69;5032267;28;20048;-84
2022/02/24 05:27:01;;;;;;;5.82;3.25;;;;;;;1.57;57.68;100401.16;5035505;28;20142;-84
2022/02/24 05:29:27;;;;;;;7.82;3.63;;;;;;;1.23;58.44;100338.31;5032842;28;20130;-85
2022/02/24 05:31:52;;;;;;;7.55;3.80;;;;;;;1.74;58.15;100419.75;5020562;28;20057;-83
2022/02/24 05:34:18;;;;;;;5.25;3.08;;;;;;;1.83;57.90;100434.59;5035696;28;20164;-86
2022/02/24 05:36:44;;;;;;;5.90;3.63;;;;;;;1.99;57.47;100442.03;5051806;28;20131;-86
2022/02/24 05:39:11;;;;;;;5.32;3.78;;;;;;;1.58;57.84;100349.03;5038259;28;20068;-86
2022/02/24 05:41:37;;;;;;;6.03;2.92;;;;;;;2.24;58.10;100440.34;5033256;28;20099;-85
2022/02/24 05:44:03;;;;;;;14.88;3.72;;;;;;;2.22;57.75;100417.16;5000881;28;20045;-84
2022/02/24 05:46:29;;;;;;;5.00;3.22;;;;;;;1.88;57.82;100343.22;5034032;28;20037;-86
2022/02/24 05:48:59;;;;;;;6.32;3.40;;;;;;;2.47;57.26;100443.69;5032481;28;20092;-87
2022/02/24 05:51:25;;;;;;;5.65;3.05;;;;;;;2.39;57.49;100438.31;5032214;28;20041;-82
2022/02/24 05:53:51;;;;;;;4.55;3.10;;;;;;;2.00;57.73;100397.56;4998936;28;20517;-88
2022/02/24 05:56:16;;;;;;;4.60;2.92;;;;;;;1.95;57.55;100399.09;4998143;28;20041;-82
2022/02/24 05:58:45;;;;;;;6.88;3.85;;;;;;;2.06;57.84;100426.03;5032465;28;20045;-86
2022/02/24 06:01:13;;;;;;;6.97;3.88;;;;;;;2.17;57.72;100443.50;5029910;28;20025;-80
2022/02/24 06:03:39;;;;;;;9.35;3.67;;;;;;;2.07;58.04;100430.38;5031815;28;20518;-84
2022/02/24 06:06:39;;;;;;;5.63;3.42;;;;;;;2.09;57.46;100451.84;5015866;28;20410;-81
2022/02/24 06:09:06;;;;;;;6.82;3.90;;;;;;;2.10;57.96;100448.41;4996324;28;20058;-81
2022/02/24 06:11:41;;;;;;;5.20;3.45;;;;;;;2.17;57.92;100448.66;5031601;28;20203;-82
2022/02/24 06:14:15;;;;;;;6.13;3.45;;;;;;;1.78;57.83;100386.53;5030816;28;20212;-82
2022/02/24 06:16:44;;;;;;;6.00;3.25;;;;;;;1.73;57.63;100375.22;5014982;28;20037;-83
2022/02/24 06:19:16;;;;;;;5.15;3.47;;;;;;;2.06;57.84;100423.47;5030703;28;20198;-80
2022/02/24 06:22:25;;;;;;;5.20;3.22;;;;;;;1.76;57.83;100388.19;5024034;28;20560;-81
2022/02/24 06:24:56;;;;;;;6.33;3.13;;;;;;;1.58;57.62;100349.88;5029934;28;20049;-80
2022/02/24 06:27:27;;;;;;;7.10;3.50;;;;;;;2.05;57.31;100426.88;5016169;28;20295;-82
2022/02/24 06:29:57;;;;;;;7.00;3.63;;;;;;;1.83;57.73;100401.25;5040000;28;20394;-81
2022/02/24 06:32:29;;;;;;;9.80;4.65;;;;;;;2.05;57.68;100457.66;5025147;28;20044;-82
2022/02/24 06:35:24;;;;;;;5.38;3.42;;;;;;;2.10;57.51;100486.94;5035162;28;20514;-82
2022/02/24 06:37:51;;;;;;;7.88;3.25;;;;;;;1.86;57.56;100419.31;5030710;28;20053;-83
2022/02/24 06:40:17;;;;;;;5.65;3.15;;;;;;;2.25;57.25;100494.31;5041644;28;20034;-79
2022/02/24 06:42:43;;;;;;;6.55;3.45;;;;;;;2.32;57.73;100510.81;5044917;28;20041;-82
2022/02/24 06:45:13;;;;;;;5.30;3.22;;;;;;;1.55;58.02;100372.84;5056269;28;20041;-82
2022/02/24 06:47:47;;;;;;;4.70;3.05;;;;;;;1.65;57.59;100399.75;5057829;28;20068;-82
2022/02/24 06:50:18;;;;;;;5.55;3.58;;;;;;;2.12;57.50;100476.75;5046974;28;20045;-82
2022/02/24 06:53:27;;;;;;;7.20;3.47;;;;;;;2.21;57.62;100473.63;5049148;28;20560;-82
2022/02/24 06:56:17;;;;;;;5.63;3.40;;;;;;;2.01;57.63;100429.25;5042866;28;20041;-81
2022/02/24 06:58:43;;;;;;;6.82;3.58;;;;;;;2.30;57.12;100483.34;5034065;28;20247;-84
2022/02/24 07:01:09;;;;;;;5.22;3.13;;;;;;;2.07;57.50;100440.63;5035081;28;20545;-83
2022/02/24 07:03:35;;;;;;;6.88;3.72;;;;;;;2.16;57.06;100473.47;5019398;28;20151;-82
2022/02/24 07:06:01;;;;;;;6.80;3.42;;;;;;;2.42;56.86;100509.50;5034779;28;20041;-82
2022/02/24 07:08:27;;;;;;;7.25;3.95;;;;;;;2.49;57.71;100528.56;5051708;28;20091;-83
2022/02/24 07:10:56;;;;;;;10.30;5.68;;;;;;;1.96;56.64;100426.53;5033487;28;20037;-85
2022/02/24 07:13:23;;;;;;;7.30;4.07;;;;;;;2.54;57.11;100524.44;5029741;28;20176;-83
2022/02/24 07:15:49;;;;;;;6.50;3.60;;;;;;;2.60;56.92;100521.22;5025033;28;20543;-84
2022/02/24 07:18:15;;;;;;;7.85;3.40;;;;;;;2.76;57.02;100525.22;5030815;28;20043;-81
2022/02/24 07:20:44;;;;;;;6.20;3.28;;;;;;;2.70;56.73;100506.19;5019408;28;20036;-83
2022/02/24 07:23:10;;;;;;;4.57;3.03;;;;;;;2.40;57.02;100464.88;4999134;28;20069;-81
2022/02/24 07:25:36;;;;;;;7.63;3.75;;;;;;;2.89;56.41;100527.38;5032719;28;20041;-82
2022/02/24 07:28:02;;;;;;;5.75;3.10;;;;;;;2.85;56.73;100500.69;5029995;28;20059;-84
2022/02/24 07:30:28;;;;;;;6.38;3.15;;;;;;;2.93;56.57;100516.38;5030019;28;20086;-83
2022/02/24 07:32:57;;;;;;;7.75;3.25;;;;;;;2.93;56.23;100513.81;5023873;28;20068;-82
2022/02/24 07:35:23;;;;;;;6.57;3.75;;;;;;;2.86;56.41;100507.59;5046246;28;20045;-81
2022/02/24 07:37:48;;;;;;;8.27;3.40;;;;;;;3.07;56.19;100534.84;5012936;28;20045;-82
2022/02/24 07:40:26;;;;;;;6.72;3.38;;;;;;;2.61;55.90;100441.59;5016033;28;20053;-82
2022/02/24 07:42:52;;;;;;;6.10;3.78;;;;;;;3.00;56.34;100502.03;5027559;28;20041;-81
2022/02/24 07:45:18;;;;;;;12.75;3.65;;;;;;;2.84;56.32;100472.34;5039612;28;20129;-82
2022/02/24 07:47:50;;;;;;;5.78;3.58;;;;;;;2.69;55.48;100463.31;5017383;28;20053;-81
2022/02/24 07:50:16;;;;;;;5.93;3.30;;;;;;;2.78;55.70;100482.41;5027234;28;20053;-82
2022/02/24 07:52:52;;;;;;;4.82;2.90;;;;;;;2.91;55.08;100512.88;5027247;28;20230;-82
2022/02/24 07:55:18;;;;;;;4.93;3.25;;;;;;;2.47;55.50;100430.84;5044878;28;20041;-82
2022/02/24 07:57:46;;;;;;;6.90;3.05;;;;;;;3.18;55.14;100545.50;5014570;28;20503;-84
2022/02/24 08:00:16;;;;;;;7.00;3.28;;;;;;;3.09;55.60;100522.88;5030799;28;20037;-83
2022/02/24 08:02:51;;;;;;;4.43;2.95;;;;;;;2.81;54.96;100477.38;5031869;28;20065;-81
2022/02/24 08:05:20;;;;;;;4.10;2.60;;;;;;;2.55;54.75;100442.28;5026716;28;20045;-80
2022/02/24 08:07:53;;;;;;;4.22;2.97;;;;;;;2.82;55.06;100489.41;5028278;28;20045;-82
2022/02/24 08:10:20;;;;;;;7.78;4.07;;;;;;;2.89;55.15;100509.38;4995134;28;20052;-82
2022/02/24 08:12:47;;;;;;;4.55;3.20;;;;;;;3.10;54.78;100534.06;5029197;28;20037;-83
2022/02/24 08:15:25;;;;;;;4.95;3.33;;;;;;;3.15;54.33;100529.94;5036172;28;20469;-82
2022/02/24 08:18:00;;;;;;;6.53;3.30;;;;;;;3.10;54.63;100518.63;5030939;28;20044;-81
2022/02/24 08:20:50;;;;;;;5.13;3.13;;;;;;;3.32;54.35;100543.34;5029304;28;20107;-82
2022/02/24 08:23:28;;;;;;;5.35;3.47;;;;;;;3.19;54.25;100542.09;5013515;28;20426;-82
2022/02/24 08:26:03;;;;;;;6.63;3.20;;;;;;;3.06;54.24;100521.91;5029288;28;20122;-81
2022/02/24 08:28:29;;;;;;;8.63;3.63;;;;;;;2.94;54.48;100510.41;5011828;28;20076;-83
2022/02/24 08:31:09;;;;;;;5.75;3.35;;;;;;;2.68;54.51;100461.56;5030918;28;21350;-82
2022/02/24 08:33:37;;;;;;;6.85;3.30;;;;;;;3.10;54.51;100546.91;5014464;28;20135;-84
2022/02/24 08:36:22;;;;;;;6.03;3.60;;;;;;;2.56;54.48;100451.75;5014433;28;20074;-83
2022/02/24 08:38:54;;;;;;;4.47;2.78;;;;;;;3.30;53.89;100581.03;5020313;28;20036;-82
2022/02/24 08:41:23;;;;;;;6.70;2.80;;;;;;;3.18;54.45;100571.22;5003984;28;20132;-81
2022/02/24 08:43:52;;;;;;;6.25;3.15;;;;;;;2.51;54.32;100473.81;5018783;28;20048;-82
2022/02/24 08:46:21;;;;;;;4.07;2.55;;;;;;;3.10;53.84;100582.94;5029251;28;20048;-82
2022/02/24 08:48:52;;;;;;;5.15;2.95;;;;;;;3.07;54.20;100590.53;5053530;28;20565;-81
2022/02/24 08:51:20;;;;;;;6.00;2.83;;;;;;;2.77;54.19;100553.53;5042547;28;20050;-80
2022/02/24 08:53:46;;;;;;;5.55;2.60;;;;;;;2.88;53.81;100566.75;5023973;28;20052;-83
2022/02/24 08:56:16;;;;;;;6.47;2.95;;;;;;;2.52;54.22;100534.69;5042478;28;20045;-80
2022/02/24 08:58:42;;;;;;;4.38;2.70;;;;;;;2.13;54.14;100472.47;5040328;28;20068;-82
2022/02/24 09:01:26;;;;;;;6.00;3.13;;;;;;;2.29;54.48;100497.00;5028141;28;20044;-82
2022/02/24 09:03:56;;;;;;;5.18;2.88;;;;;;;2.43;54.47;100506.06;5037723;28;20067;-80
2022/02/24 09:06:22;;;;;;;4.97;2.97;;;;;;;2.15;54.07;100463.13;5020094;28;20033;-82
2022/02/24 09:08:55;;;;;;;4.22;2.65;;;;;;;2.30;53.79;100521.88;5037268;28;20045;-81
2022/02/24 09:11:24;;;;;;;5.75;3.03;;;;;;;2.61;53.71;100589.78;5035171;28;20518;-82
2022/02/24 09:13:51;;;;;;;7.78;2.80;;;;;;;1.96;54.29;100467.59;5018835;28;20507;-81
2022/02/24 09:16:17;;;;;;;3.97;2.75;;;;;;;2.70;54.06;100585.88;5014785;28;20037;-80
2022/02/24 09:18:43;;;;;;;5.20;2.83;;;;;;;2.56;53.91;100544.25;4994984;28;20064;-81
2022/02/24 09:21:13;;;;;;;3.83;2.70;;;;;;;2.64;53.60;100544.50;4991669;28;20092;-81
2022/02/24 09:23:40;;;;;;;7.72;3.35;;;;;;;2.65;54.07;100568.53;5018734;28;20054;-82
2022/02/24 09:26:06;;;;;;;4.63;3.25;;;;;;;2.76;54.13;100563.78;5026371;28;20040;-81
2022/02/24 09:28:32;;;;;;;4.63;3.03;;;;;;;2.75;53.96;100552.59;5010328;28;20049;-81
2022/02/24 09:30:58;;;;;;;5.35;3.40;;;;;;;2.83;53.77;100569.19;5026180;28;20103;-79
2022/02/24 09:33:24;;;;;;;7.55;3.25;;;;;;;2.70;54.07;100560.16;5042450;28;20041;-85
2022/02/24 09:35:51;;;;;;;5.40;3.00;;;;;;;2.78;53.59;100588.69;5028755;28;20048;-81
2022/02/24 09:38:17;;;;;;;4.40;2.58;;;;;;;2.52;54.10;100546.66;5042540;28;20141;-81
2022/02/24 09:40:45;;;;;;;4.50;2.40;;;;;;;2.74;53.73;100596.25;5030774;28;20148;-80
2022/02/24 09:43:13;;;;;;;3.78;2.25;;;;;;;2.73;53.73;100591.94;5031903;28;20072;-80
2022/02/24 09:45:41;;;;;;;4.22;2.83;;;;;;;2.64;53.44;100598.47;5013427;28;20045;-81
2022/02/24 09:48:10;;;;;;;6.45;2.70;;;;;;;2.51;53.55;100586.03;5013840;28;20043;-82
2022/02/24 09:50:39;;;;;;;5.93;2.67;;;;;;;2.41;53.34;100564.25;5030225;28;20045;-83
2022/02/24 09:53:05;;;;;;;6.95;2.55;;;;;;;2.55;53.66;100585.28;5031892;28;20465;-80
2022/02/24 09:55:31;;;;;;;5.07;2.22;;;;;;;2.70;53.61;100598.72;5037255;28;20049;-81
2022/02/24 09:57:57;;;;;;;5.78;2.45;;;;;;;2.60;53.10;100570.91;5036156;28;20164;-82
2022/02/24 10:00:32;;;;;;;4.72;2.25;;;;;;;2.69;52.72;100591.81;5030430;28;20109;-82
2022/02/24 10:02:58;;;;;;;4.38;1.92;;;;;;;2.26;52.43;100538.88;5021379;28;20041;-84
2022/02/24 10:05:24;;;;;;;2.63;1.70;;;;;;;2.01;52.56;100513.97;5035406;28;20053;-82
2022/02/24 10:07:52;;;;;;;3.65;1.75;;;;;;;2.43;52.48;100597.69;5031511;28;20087;-81
2022/02/24 10:10:33;;;;;;;2.85;2.00;;;;;;;2.34;52.59;100586.25;5052311;28;20056;-84
2022/02/24 10:13:17;;;;;;;2.47;1.80;;;;;;;2.40;53.13;100590.75;5035069;28;20048;-82
2022/02/24 10:15:51;;;;;;;4.57;2.03;;;;;;;2.34;52.61;100567.41;5013737;28;20497;-83
2022/02/24 10:18:18;;;;;;;3.92;2.00;;;;;;;2.59;52.37;100600.00;5033529;28;20037;-83
2022/02/24 10:20:51;;;;;;;3.80;2.30;;;;;;;2.69;52.26;100608.91;5025807;28;20129;-81
2022/02/24 10:23:19;;;;;;;4.90;2.33;;;;;;;2.68;52.30;100609.75;5003277;28;20063;-83
2022/02/24 10:25:50;;;;;;;4.03;2.30;;;;;;;2.75;51.85;100610.88;5053360;28;20037;-80
2022/02/24 10:28:45;;;;;;;3.63;2.45;;;;;;;2.85;51.98;100624.09;5042278;28;20085;-84
2022/02/24 10:31:15;;;;;;;3.55;2.53;;;;;;;2.92;51.84;100612.34;5028081;28;20045;-80
2022/02/24 10:33:49;;;;;;;5.03;2.42;;;;;;;3.00;51.87;100603.16;5064069;28;20144;-81
2022/02/24 10:36:24;;;;;;;2.90;2.10;;;;;;;3.22;51.29;100609.03;5034885;28;20033;-81
2022/02/24 10:39:17;;;;;;;4.72;2.40;;;;;;;3.43;50.85;100614.06;5029596;28;20041;-83
2022/02/24 10:42:04;;;;;;;5.68;2.05;;;;;;;3.58;51.22;100623.97;5031738;28;20095;-83
2022/02/24 10:44:35;;;;;;;4.45;1.70;;;;;;;3.36;50.43;100544.34;5029266;28;20054;-84
2022/02/24 10:47:04;;;;;;;2.60;1.98;;;;;;;4.03;50.44;100616.81;5009769;28;20034;-82
2022/02/24 10:49:39;;;;;;;3.28;1.70;;;;;;;3.56;50.32;100504.66;5030160;28;20056;-85
2022/02/24 10:52:09;;;;;;;2.30;1.60;;;;;;;4.21;49.25;100573.56;5028595;28;20038;-86
2022/02/24 10:54:36;;;;;;;3.58;1.70;;;;;;;4.09;48.94;100539.69;5012579;28;20044;-86
2022/02/24 10:57:27;;;;;;;2.50;1.77;;;;;;;4.71;48.67;100615.31;5032098;28;20454;-86
2022/02/24 10:59:59;;;;;;;4.45;2.13;;;;;;;4.62;48.86;100557.53;5030180;28;20056;-85
2022/02/24 11:02:29;;;;;;;11.10;5.65;;;;;;;5.00;48.52;100599.78;5029323;28;20033;-85
2022/02/24 11:04:56;;;;;;;15.23;8.05;;;;;;;5.18;48.76;100583.91;5011486;28;20060;-87
2022/02/24 11:07:24;;;;;;;5.03;2.83;;;;;;;5.24;47.93;100576.31;5029563;28;20079;-83
2022/02/24 11:10:04;;;;;;;3.83;2.83;;;;;;;5.39;48.13;100599.06;5013633;28;20072;-84
2022/02/24 11:12:37;;;;;;;9.73;4.93;;;;;;;5.47;48.12;100613.03;5046264;28;20041;-86
2022/02/24 11:15:20;;;;;;;8.50;4.90;;;;;;;5.71;48.11;100617.06;5031152;28;20049;-83
2022/02/24 11:18:01;;;;;;;8.10;3.92;;;;;;;5.35;47.70;100551.66;5016833;28;20060;-85
2022/02/24 11:20:30;;;;;;;16.20;7.07;;;;;;;5.38;48.47;100531.09;5037250;28;20094;-87
2022/02/24 11:22:56;;;;;;;15.35;6.28;;;;;;;5.53;48.22;100537.44;5039522;28;20103;-84
2022/02/24 11:25:28;;;;;;;3.28;1.95;;;;;;;5.63;47.28;100551.44;5040786;28;20537;-85
2022/02/24 11:28:05;;;;;;;10.77;5.50;;;;;;;5.78;47.84;100577.59;5019262;28;20041;-86
2022/02/24 11:30:39;;;;;;;11.05;5.43;;;;;;;5.77;47.41;100557.78;5018557;28;20042;-84
2022/02/24 11:33:17;;;;;;;5.57;3.08;;;;;;;5.67;47.25;100546.38;5025853;28;20044;-86
2022/02/24 11:35:43;;;;;;;4.78;2.28;;;;;;;5.75;47.91;100590.44;5044681;28;20076;-83
2022/02/24 11:38:15;;;;;;;6.80;3.53;;;;;;;5.45;47.10;100559.59;5038046;28;20093;-83
2022/02/24 11:40:42;;;;;;;4.18;2.35;;;;;;;5.60;47.22;100584.94;5029315;28;20109;-84
2022/02/24 11:43:19;;;;;;;5.85;3.40;;;;;;;5.81;47.65;100618.16;5015369;28;20057;-88
2022/02/24 11:45:50;;;;;;;5.45;2.30;;;;;;;5.22;47.07;100511.78;5019977;28;20096;-85
2022/02/24 11:48:29;;;;;;;6.20;3.10;;;;;;;5.53;46.96;100555.50;5054695;28;20052;-83
2022/02/24 11:51:06;;;;;;;3.03;2.17;;;;;;;5.82;47.02;100620.75;5030013;28;20225;-85